Seligman, AZ (86337)

08:09 AM MST del 30 Luglio 2014 (GMT -0700)
3 mi. due north of Ash Fork AZ (KAZASHFO2) Alt. 5395 ft | 35.27 °N, 112.49 °W | Change Station

Current weather conditions updated 4 minutes ago

Clear
Sereno
77.8 °F
Sembra 79 °F
N
0.0
Vento Variabile Vento da ONO
Gusts 0.0 mph

Oggi si prevede un aumento della temperatura rispetto a ieri.

Oggi
Massima -- | Minima -- °F
--% Possibilità di precip.
Ieri
Massima -- | Minima -- °F
Precip. -- in
5:38 AM 7:36 PM
Luna crescente, 12% visible
Pressione 30.39 in
Visibilità 10.0 miglia
Nuvole Sereno
Indice di calore 79 °F
Punto di rugiada 55 °F
Umidità 45%
Piovosità 0.00 in
Spessore del manto nevoso Non disponibile.
Raggi UV 3 fuori da 12
Polline 4.90 fuori da 12
Qualità dell'aria Non disponibile.
Flu Activity Non disponibile.
METAR KCMR 301455Z AUTO 00000KT 10SM CLR 20/12 A3039 RMK AO1

More Conditions Fewer Conditions

Pressione 30.39 in
Visibilità 10.0 miglia
Nuvole Sereno
Indice di calore 79 °F
Punto di rugiada 55 °F
Umidità 45%
Piovosità 0.00 in
Spessore del manto nevoso Non disponibile.
Raggi UV 3 fuori da 12
Polline 4.90 fuori da 12
Qualità dell'aria Non disponibile.
Flu Activity Non disponibile.
METAR KCMR 301455Z AUTO 00000KT 10SM CLR 20/12 A3039 RMK AO1

More Conditions Fewer Conditions

10-Day Weather Forecast

Almanac

Astronomia

Jul. 30, 2014 Alba Tramonto
Ora attuale 05:38 MST 19:36 MST
Crepuscolo civile 05:10 MST 20:04 MST
Crepuscolo nautico 04:36 MST 20:38 MST
Crepuscolo astronomico 03:59 MST 21:15 MST
Luna 09:04 MST 21:31 MST
Estensione della luce visibile 14h 53m
Lunghezza del giorno
13h 57m
Tomorrow will be 1m 37s shorter.
Luna crescente, 12% of the Moon is Illuminated
Oggi
Luna crescente
Ago 3
Primo quarto
Ago 10
Luna piena
Ago 17
Ultimo quarto
Ago 25
Nuovo

Gli estremi di oggi

State Highs State Lows

Community

WunderPhotos

Upload Photos

1,739,107 foto caricate!

WunderBlogs® & News

By Dr. Jeff Masters
Director of Meteorology, Weather Underground
By Kari Strenfel
Meteorologist, Weather Underground
By Christopher C. Burt
Weather Historian, Weather Underground
July 30, 2014
July 30, 2014
July 30, 2014

Nearby

Profondità neve

Stazione Profondità Altitudine
White Horse Lake 1 in 7180 ft
Snowslide Canyon 0 in 9730 ft
Mormon Mountain 0 in 7500 ft
Workman Creek 1 in 6900 ft
Maverick Fork 0 in 9200 ft

Attività sismica

Città  Distanza Mag. Data & Ora
Non sono state riportate attività sismiche nelle vicinanze.
Minimo Magnitudo Mostrato è 2.5.

Temperature delle acque costiere

Località Temperatura
Nessun dato dalle stazioni

Stazioni meteo nelle vicinanze

Ubicazione della stazione Temp. Indice di calore Punto di rugiada Umidità Vento Precip. Alt. Aggiornato Tipo
MesoWest AUDLEY GRADE , Seligman, AZ 58 °F - 52 °F 82% Nord  a  - 0.00 in / hr 5450 ft 6:53 AM MST MADIS
3 mi. due north of Ash Fork AZ, Ash Fork, AZ 77.8 °F 79 °F 55 °F 45% ONO  a  0.0 mph 0.00 in / hr 5395 ft 8:05 AM MST Normale

Show More Stations Show Fewer Stations